sensor_id;sensor_type;location;lat;lon;timestamp;pressure;altitude;pressure_sealevel;temperature;humidity
38275;BME280;24637;49.380;6.682;2022-08-04T00:01:16;99344.13;;;25.18;51.34
38275;BME280;24637;49.380;6.682;2022-08-04T00:03:54;99350.38;;;25.15;51.09
38275;BME280;24637;49.380;6.682;2022-08-04T00:06:36;99336.31;;;25.11;51.57
38275;BME280;24637;49.380;6.682;2022-08-04T00:09:09;99338.13;;;25.07;51.29
38275;BME280;24637;49.380;6.682;2022-08-04T00:11:39;99345.19;;;25.05;51.31
38275;BME280;24637;49.380;6.682;2022-08-04T00:14:14;99333.56;;;25.03;51.59
38275;BME280;24637;49.380;6.682;2022-08-04T00:16:43;99333.09;;;25.01;51.39
38275;BME280;24637;49.380;6.682;2022-08-04T00:19:17;99333.75;;;24.98;51.61
38275;BME280;24637;49.380;6.682;2022-08-04T00:22:03;99334.94;;;24.97;51.63
38275;BME280;24637;49.380;6.682;2022-08-04T00:24:31;99336.06;;;24.96;51.44
38275;BME280;24637;49.380;6.682;2022-08-04T00:26:58;99340.34;;;24.93;51.46
38275;BME280;24637;49.380;6.682;2022-08-04T00:29:24;99333.78;;;24.89;51.39
38275;BME280;24637;49.380;6.682;2022-08-04T00:31:51;99332.47;;;24.87;51.85
38275;BME280;24637;49.380;6.682;2022-08-04T00:34:19;99332.47;;;24.87;51.97
38275;BME280;24637;49.380;6.682;2022-08-04T00:36:48;99334.78;;;24.85;51.85
38275;BME280;24637;49.380;6.682;2022-08-04T00:39:15;99338.72;;;24.84;51.80
38275;BME280;24637;49.380;6.682;2022-08-04T00:45:05;99342.00;;;24.86;51.92
38275;BME280;24637;49.380;6.682;2022-08-04T00:50:41;99334.78;;;24.85;51.99
38275;BME280;24637;49.380;6.682;2022-08-04T00:53:12;99334.78;;;24.85;51.69
38275;BME280;24637;49.380;6.682;2022-08-04T00:58:36;99339.41;;;24.81;52.22
38275;BME280;24637;49.380;6.682;2022-08-04T01:01:15;99347.28;;;24.79;52.01
38275;BME280;24637;49.380;6.682;2022-08-04T01:18:20;99333.34;;;24.79;52.08
38275;BME280;24637;49.380;6.682;2022-08-04T01:29:48;99324.03;;;24.74;52.21
38275;BME280;24637;49.380;6.682;2022-08-04T01:32:25;99329.13;;;24.72;52.20
38275;BME280;24637;49.380;6.682;2022-08-04T01:34:59;99333.38;;;24.70;52.35
38275;BME280;24637;49.380;6.682;2022-08-04T01:40:13;99340.31;;;24.64;52.48
38275;BME280;24637;49.380;6.682;2022-08-04T01:42:40;99332.28;;;24.62;52.57
38275;BME280;24637;49.380;6.682;2022-08-04T01:45:08;99333.78;;;24.60;52.57
38275;BME280;24637;49.380;6.682;2022-08-04T01:47:36;99332.16;;;24.59;52.70
38275;BME280;24637;49.380;6.682;2022-08-04T01:50:09;99324.13;;;24.57;52.69
38275;BME280;24637;49.380;6.682;2022-08-04T01:52:37;99329.69;;;24.57;52.83
38275;BME280;24637;49.380;6.682;2022-08-04T01:55:06;99323.13;;;24.53;52.82
38275;BME280;24637;49.380;6.682;2022-08-04T01:57:36;99329.41;;;24.50;52.84
38275;BME280;24637;49.380;6.682;2022-08-04T02:00:03;99324.16;;;24.49;53.29
38275;BME280;24637;49.380;6.682;2022-08-04T02:02:29;99330.06;;;24.47;53.03
38275;BME280;24637;49.380;6.682;2022-08-04T02:04:55;99335.63;;;24.47;52.96
38275;BME280;24637;49.380;6.682;2022-08-04T02:10:07;99329.09;;;24.43;53.21
38275;BME280;24637;49.380;6.682;2022-08-04T02:15:27;99328.13;;;24.39;53.35
38275;BME280;24637;49.380;6.682;2022-08-04T02:18:01;99323.22;;;24.36;53.15
38275;BME280;24637;49.380;6.682;2022-08-04T02:20:39;99325.03;;;24.32;53.41
38275;BME280;24637;49.380;6.682;2022-08-04T02:23:09;99324.56;;;24.30;53.75
38275;BME280;24637;49.380;6.682;2022-08-04T02:25:56;99316.06;;;24.26;53.68
38275;BME280;24637;49.380;6.682;2022-08-04T02:31:24;99313.13;;;24.23;53.52
38275;BME280;24637;49.380;6.682;2022-08-04T02:34:04;99316.03;;;24.18;53.67
38275;BME280;24637;49.380;6.682;2022-08-04T02:36:35;99316.72;;;24.15;53.77
38275;BME280;24637;49.380;6.682;2022-08-04T02:39:03;99315.75;;;24.11;53.72
38275;BME280;24637;49.380;6.682;2022-08-04T02:41:30;99315.59;;;24.07;53.76
38275;BME280;24637;49.380;6.682;2022-08-04T02:43:58;99315.44;;;24.04;53.86
38275;BME280;24637;49.380;6.682;2022-08-04T02:46:25;99309.03;;;24.03;54.44
38275;BME280;24637;49.380;6.682;2022-08-04T02:48:52;99312.16;;;24.02;53.97
38275;BME280;24637;49.380;6.682;2022-08-04T02:51:29;99307.41;;;24.02;54.09
38275;BME280;24637;49.380;6.682;2022-08-04T02:53:57;99308.22;;;24.03;54.26
38275;BME280;24637;49.380;6.682;2022-08-04T02:56:25;99307.41;;;24.02;54.06
38275;BME280;24637;49.380;6.682;2022-08-04T02:58:57;99313.34;;;24.01;53.87
38275;BME280;24637;49.380;6.682;2022-08-04T03:01:23;99304.97;;;24.01;54.12
38275;BME280;24637;49.380;6.682;2022-08-04T03:24:34;99312.16;;;24.02;53.76
38275;BME280;24637;49.380;6.682;2022-08-04T03:27:18;99328.03;;;24.01;53.91
38275;BME280;24637;49.380;6.682;2022-08-04T03:30:07;99320.03;;;23.99;53.91
38275;BME280;24637;49.380;6.682;2022-08-04T03:41:01;99323.66;;;23.91;54.13
38275;BME280;24637;49.380;6.682;2022-08-04T03:48:57;99328.25;;;23.87;54.65
38275;BME280;24637;49.380;6.682;2022-08-04T03:51:47;99325.13;;;23.89;54.56
38275;BME280;24637;49.380;6.682;2022-08-04T04:08:26;99331.38;;;23.77;54.22
38275;BME280;24637;49.380;6.682;2022-08-04T04:19:22;99332.34;;;23.81;54.79
38275;BME280;24637;49.380;6.682;2022-08-04T04:33:31;99328.28;;;23.70;54.77
38275;BME280;24637;49.380;6.682;2022-08-04T04:38:51;99331.22;;;23.65;55.06
38275;BME280;24637;49.380;6.682;2022-08-04T04:47:10;99338.28;;;23.63;54.96
38275;BME280;24637;49.380;6.682;2022-08-04T04:49:45;99341.38;;;23.61;54.73
38275;BME280;24637;49.380;6.682;2022-08-04T04:52:20;99340.56;;;23.60;54.89
38275;BME280;24637;49.380;6.682;2022-08-04T04:55:06;99343.66;;;23.59;54.96
38275;BME280;24637;49.380;6.682;2022-08-04T04:57:35;99347.59;;;23.58;55.02
38275;BME280;24637;49.380;6.682;2022-08-04T05:00:05;99348.72;;;23.57;54.88
38275;BME280;24637;49.380;6.682;2022-08-04T05:08:15;99353.97;;;23.58;55.06
38275;BME280;24637;49.380;6.682;2022-08-04T05:13:53;99355.63;;;23.59;55.15
38275;BME280;24637;49.380;6.682;2022-08-04T05:16:43;99350.38;;;23.58;54.89
38275;BME280;24637;49.380;6.682;2022-08-04T05:21:59;99352.50;;;23.61;55.01
38275;BME280;24637;49.380;6.682;2022-08-04T05:24:27;99354.16;;;23.62;54.90
38275;BME280;24637;49.380;6.682;2022-08-04T05:27:00;99365.28;;;23.62;54.70
38275;BME280;24637;49.380;6.682;2022-08-04T05:29:35;99358.06;;;23.61;54.87
38275;BME280;24637;49.380;6.682;2022-08-04T05:32:04;99359.03;;;23.65;54.79
38275;BME280;24637;49.380;6.682;2022-08-04T05:34:41;99363.16;;;23.68;54.89
38275;BME280;24637;49.380;6.682;2022-08-04T05:37:10;99358.91;;;23.70;54.80
38275;BME280;24637;49.380;6.682;2022-08-04T05:39:44;99362.66;;;23.74;54.91
38275;BME280;24637;49.380;6.682;2022-08-04T05:42:11;99362.97;;;23.81;54.56
38275;BME280;24637;49.380;6.682;2022-08-04T05:44:38;99358.72;;;23.84;54.63
38275;BME280;24637;49.380;6.682;2022-08-04T05:47:06;99363.28;;;23.88;54.56
38275;BME280;24637;49.380;6.682;2022-08-04T05:49:33;99368.22;;;23.91;54.44
38275;BME280;24637;49.380;6.682;2022-08-04T05:52:02;99365.91;;;23.93;54.08
38275;BME280;24637;49.380;6.682;2022-08-04T05:54:33;99366.72;;;23.94;54.08
38275;BME280;24637;49.380;6.682;2022-08-04T05:57:02;99361.97;;;23.94;54.16
38275;BME280;24637;49.380;6.682;2022-08-04T05:59:30;99366.38;;;23.95;54.06
38275;BME280;24637;49.380;6.682;2022-08-04T06:01:58;99361.81;;;23.99;53.82
38275;BME280;24637;49.380;6.682;2022-08-04T06:04:30;99359.16;;;24.03;53.83
38275;BME280;24637;49.380;6.682;2022-08-04T06:06:57;99363.25;;;24.06;53.67
38275;BME280;24637;49.380;6.682;2022-08-04T06:09:23;99355.41;;;24.08;53.88
38275;BME280;24637;49.380;6.682;2022-08-04T06:11:49;99357.84;;;24.09;53.43
38275;BME280;24637;49.380;6.682;2022-08-04T06:14:17;99362.75;;;24.12;53.30
38275;BME280;24637;49.380;6.682;2022-08-04T06:16:43;99353.25;;;24.13;53.18
38275;BME280;24637;49.380;6.682;2022-08-04T06:19:13;99365.22;;;24.14;53.22
38275;BME280;24637;49.380;6.682;2022-08-04T06:21:44;99367.69;;;24.15;53.27
38275;BME280;24637;49.380;6.682;2022-08-04T06:24:15;99358.97;;;24.17;53.01
38275;BME280;24637;49.380;6.682;2022-08-04T06:26:42;99357.50;;;24.19;52.94
38275;BME280;24637;49.380;6.682;2022-08-04T06:29:10;99356.06;;;24.22;52.68
38275;BME280;24637;49.380;6.682;2022-08-04T06:31:45;99348.66;;;24.26;52.82
38275;BME280;24637;49.380;6.682;2022-08-04T06:34:21;99355.22;;;24.30;52.36
38275;BME280;24637;49.380;6.682;2022-08-04T06:36:48;99350.09;;;24.32;52.16
38275;BME280;24637;49.380;6.682;2022-08-04T06:39:14;99355.03;;;24.35;52.30
38275;BME280;24637;49.380;6.682;2022-08-04T06:41:39;99349.59;;;24.38;52.93
38275;BME280;24637;49.380;6.682;2022-08-04T06:44:08;99347.91;;;24.46;52.94
38275;BME280;24637;49.380;6.682;2022-08-04T06:46:36;99349.22;;;24.49;52.93
38275;BME280;24637;49.380;6.682;2022-08-04T06:49:02;99346.59;;;24.52;53.14
38275;BME280;24637;49.380;6.682;2022-08-04T06:51:30;99343.13;;;24.55;52.88
38275;BME280;24637;49.380;6.682;2022-08-04T06:53:55;99339.38;;;24.60;52.87
38275;BME280;24637;49.380;6.682;2022-08-04T06:56:21;99339.50;;;24.63;53.05
38275;BME280;24637;49.380;6.682;2022-08-04T06:58:49;99337.19;;;24.65;53.03
38275;BME280;24637;49.380;6.682;2022-08-04T07:01:18;99337.31;;;24.69;52.57
38275;BME280;24637;49.380;6.682;2022-08-04T07:03:44;99337.50;;;24.72;52.71
38275;BME280;24637;49.380;6.682;2022-08-04T07:06:10;99346.34;;;24.74;52.38
38275;BME280;24637;49.380;6.682;2022-08-04T07:08:36;99355.97;;;24.77;52.79
38275;BME280;24637;49.380;6.682;2022-08-04T07:11:02;99350.06;;;24.79;52.47
38275;BME280;24637;49.380;6.682;2022-08-04T07:13:30;99357.78;;;24.82;52.47
38275;BME280;24637;49.380;6.682;2022-08-04T07:15:56;99355.44;;;24.84;52.68
38275;BME280;24637;49.380;6.682;2022-08-04T07:18:22;99353.16;;;24.86;52.40
38275;BME280;24637;49.380;6.682;2022-08-04T07:20:48;99338.06;;;24.87;52.37
38275;BME280;24637;49.380;6.682;2022-08-04T07:23:15;99341.34;;;24.89;52.35
38275;BME280;24637;49.380;6.682;2022-08-04T07:25:52;99339.03;;;24.91;52.25
38275;BME280;24637;49.380;6.682;2022-08-04T07:28:19;99340.69;;;24.92;52.12
38275;BME280;24637;49.380;6.682;2022-08-04T07:30:47;99343.97;;;24.94;52.21
38275;BME280;24637;49.380;6.682;2022-08-04T07:33:16;99338.03;;;24.95;52.11
38275;BME280;24637;49.380;6.682;2022-08-04T07:35:43;99341.66;;;24.96;52.10
38275;BME280;24637;49.380;6.682;2022-08-04T07:38:08;99339.31;;;24.98;52.01
38275;BME280;24637;49.380;6.682;2022-08-04T07:40:36;99337.03;;;25.00;51.73
38275;BME280;24637;49.380;6.682;2022-08-04T07:43:02;99345.38;;;25.00;52.02
38275;BME280;24637;49.380;6.682;2022-08-04T07:45:28;99340.28;;;25.02;51.72
38275;BME280;24637;49.380;6.682;2022-08-04T07:47:54;99341.94;;;25.03;52.06
38275;BME280;24637;49.380;6.682;2022-08-04T07:50:20;99333.25;;;25.04;51.96
38275;BME280;24637;49.380;6.682;2022-08-04T07:52:46;99343.22;;;25.05;51.92
38275;BME280;24637;49.380;6.682;2022-08-04T07:55:12;99354.03;;;25.07;52.15
38275;BME280;24637;49.380;6.682;2022-08-04T07:57:37;99335.00;;;25.09;51.98
38275;BME280;24637;49.380;6.682;2022-08-04T08:00:07;99347.78;;;25.10;52.11
38275;BME280;24637;49.380;6.682;2022-08-04T08:02:34;99339.91;;;25.12;51.74
38275;BME280;24637;49.380;6.682;2022-08-04T08:05:00;99341.53;;;25.13;52.04
38275;BME280;24637;49.380;6.682;2022-08-04T08:07:25;99342.34;;;25.13;52.16
38275;BME280;24637;49.380;6.682;2022-08-04T08:09:51;99342.00;;;25.15;51.87
38275;BME280;24637;49.380;6.682;2022-08-04T08:12:17;99340.84;;;25.16;52.07
38275;BME280;24637;49.380;6.682;2022-08-04T08:14:42;99333.31;;;25.17;51.81
38275;BME280;24637;49.380;6.682;2022-08-04T08:17:08;99336.91;;;25.17;52.04
38275;BME280;24637;49.380;6.682;2022-08-04T08:19:34;99326.25;;;25.19;51.87
38275;BME280;24637;49.380;6.682;2022-08-04T08:22:00;99330.63;;;25.20;51.91
38275;BME280;24637;49.380;6.682;2022-08-04T08:24:27;99331.47;;;25.21;51.82
38275;BME280;24637;49.380;6.682;2022-08-04T08:26:52;99327.19;;;25.23;51.54
38275;BME280;24637;49.380;6.682;2022-08-04T08:29:18;99329.97;;;25.23;51.78
38275;BME280;24637;49.380;6.682;2022-08-04T08:31:44;99326.03;;;25.24;51.82
38275;BME280;24637;49.380;6.682;2022-08-04T08:34:10;99330.47;;;25.25;51.87
38275;BME280;24637;49.380;6.682;2022-08-04T08:39:11;99333.69;;;25.27;51.68
38275;BME280;24637;49.380;6.682;2022-08-04T08:47:31;99328.28;;;25.31;51.65
38275;BME280;24637;49.380;6.682;2022-08-04T08:55:21;99330.41;;;25.34;51.77
38275;BME280;24637;49.380;6.682;2022-08-04T09:06:16;99329.69;;;25.37;51.72
38275;BME280;24637;49.380;6.682;2022-08-04T09:15:10;99324.28;;;25.40;51.67
38275;BME280;24637;49.380;6.682;2022-08-04T09:17:58;99320.31;;;25.41;51.65
38275;BME280;24637;49.380;6.682;2022-08-04T09:26:05;99323.56;;;25.43;51.62
38275;BME280;24637;49.380;6.682;2022-08-04T09:28:52;99327.66;;;25.46;51.79
38275;BME280;24637;49.380;6.682;2022-08-04T09:31:22;99328.47;;;25.46;51.89
38275;BME280;24637;49.380;6.682;2022-08-04T09:36:52;99323.38;;;25.48;51.69
38275;BME280;24637;49.380;6.682;2022-08-04T09:39:45;99320.59;;;25.48;51.64
38275;BME280;24637;49.380;6.682;2022-08-04T09:44:57;99312.69;;;25.50;51.63
38275;BME280;24637;49.380;6.682;2022-08-04T09:47:36;99317.09;;;25.51;51.39
38275;BME280;24637;49.380;6.682;2022-08-04T09:55:30;99302.47;;;25.55;51.47
38275;BME280;24637;49.380;6.682;2022-08-04T09:58:08;99309.69;;;25.56;51.48
38275;BME280;24637;49.380;6.682;2022-08-04T10:00:44;99316.88;;;25.57;51.66
38275;BME280;24637;49.380;6.682;2022-08-04T10:03:12;99297.34;;;25.57;51.63
38275;BME280;24637;49.380;6.682;2022-08-04T10:06:05;99303.44;;;25.59;51.71
38275;BME280;24637;49.380;6.682;2022-08-04T10:08:55;99306.22;;;25.59;51.53
38275;BME280;24637;49.380;6.682;2022-08-04T10:16:56;99294.41;;;25.62;51.44
38275;BME280;24637;49.380;6.682;2022-08-04T10:19:27;99291.59;;;25.62;51.29
38275;BME280;24637;49.380;6.682;2022-08-04T10:22:16;99292.41;;;25.62;51.50
38275;BME280;24637;49.380;6.682;2022-08-04T10:27:33;99296.47;;;25.65;51.51
38275;BME280;24637;49.380;6.682;2022-08-04T10:30:09;99290.91;;;25.65;51.37
38275;BME280;24637;49.380;6.682;2022-08-04T10:35:20;99289.41;;;25.67;51.49
38275;BME280;24637;49.380;6.682;2022-08-04T10:38:22;99290.22;;;25.68;51.50
38275;BME280;24637;49.380;6.682;2022-08-04T10:46:30;99273.94;;;25.70;51.43
38275;BME280;24637;49.380;6.682;2022-08-04T10:49:03;99277.56;;;25.70;51.43
38275;BME280;24637;49.380;6.682;2022-08-04T10:51:39;99269.63;;;25.72;51.16
38275;BME280;24637;49.380;6.682;2022-08-04T10:54:31;99270.47;;;25.73;51.57
38275;BME280;24637;49.380;6.682;2022-08-04T10:57:03;99266.50;;;25.74;51.35
38275;BME280;24637;49.380;6.682;2022-08-04T10:59:38;99272.91;;;25.74;51.53
38275;BME280;24637;49.380;6.682;2022-08-04T11:07:34;99258.59;;;25.76;51.28
38275;BME280;24637;49.380;6.682;2022-08-04T11:10:03;99253.84;;;25.76;51.42
38275;BME280;24637;49.380;6.682;2022-08-04T11:12:30;99249.91;;;25.77;51.16
38275;BME280;24637;49.380;6.682;2022-08-04T11:15:20;99239.53;;;25.78;51.30
38275;BME280;24637;49.380;6.682;2022-08-04T11:17:50;99251.53;;;25.78;51.03
38275;BME280;24637;49.380;6.682;2022-08-04T11:20:37;99246.72;;;25.79;51.27
38275;BME280;24637;49.380;6.682;2022-08-04T11:23:12;99243.59;;;25.80;51.13
38275;BME280;24637;49.380;6.682;2022-08-04T11:26:23;99243.59;;;25.80;51.17
38275;BME280;24637;49.380;6.682;2022-08-04T11:29:01;99250.81;;;25.81;51.29
38275;BME280;24637;49.380;6.682;2022-08-04T11:31:35;99244.41;;;25.81;51.06
38275;BME280;24637;49.380;6.682;2022-08-04T11:36:40;99242.09;;;25.83;51.04
38275;BME280;24637;49.380;6.682;2022-08-04T11:39:14;99252.13;;;25.84;51.03
38275;BME280;24637;49.380;6.682;2022-08-04T11:41:52;99244.56;;;25.84;51.20
38275;BME280;24637;49.380;6.682;2022-08-04T11:44:42;99242.59;;;25.85;51.21
38275;BME280;24637;49.380;6.682;2022-08-04T11:47:24;99245.38;;;25.85;51.34
38275;BME280;24637;49.380;6.682;2022-08-04T11:49:57;99238.63;;;25.86;50.97
38275;BME280;24637;49.380;6.682;2022-08-04T11:52:26;99235.84;;;25.86;50.91
38275;BME280;24637;49.380;6.682;2022-08-04T11:54:53;99231.03;;;25.86;51.01
38275;BME280;24637;49.380;6.682;2022-08-04T11:57:20;99238.25;;;25.87;51.09
38275;BME280;24637;49.380;6.682;2022-08-04T11:59:46;99235.47;;;25.87;51.01
38275;BME280;24637;49.380;6.682;2022-08-04T12:04:57;99243.50;;;25.89;51.03
38275;BME280;24637;49.380;6.682;2022-08-04T12:10:49;99240.72;;;25.89;51.00
38275;BME280;24637;49.380;6.682;2022-08-04T12:13:35;99238.41;;;25.91;51.08
38275;BME280;24637;49.380;6.682;2022-08-04T12:16:22;99244.00;;;25.91;50.84
38275;BME280;24637;49.380;6.682;2022-08-04T12:18:49;99240.03;;;25.92;51.03
38275;BME280;24637;49.380;6.682;2022-08-04T12:21:41;99234.44;;;25.92;50.90
38275;BME280;24637;49.380;6.682;2022-08-04T12:24:16;99233.63;;;25.92;50.98
38275;BME280;24637;49.380;6.682;2022-08-04T12:26:49;99237.69;;;25.94;51.00
38275;BME280;24637;49.380;6.682;2022-08-04T12:29:17;99243.28;;;25.94;50.80
38275;BME280;24637;49.380;6.682;2022-08-04T12:36:50;99244.91;;;25.95;50.87
38275;BME280;24637;49.380;6.682;2022-08-04T12:39:21;99243.75;;;25.96;50.75
38275;BME280;24637;49.380;6.682;2022-08-04T12:44:30;99237.00;;;25.97;50.93
38275;BME280;24637;49.380;6.682;2022-08-04T12:46:58;99238.66;;;25.98;50.59
38275;BME280;24637;49.380;6.682;2022-08-04T12:49:25;99241.78;;;25.97;50.63
38275;BME280;24637;49.380;6.682;2022-08-04T12:51:52;99233.06;;;25.98;50.84
38275;BME280;24637;49.380;6.682;2022-08-04T12:54:26;99253.09;;;26.00;50.73
38275;BME280;24637;49.380;6.682;2022-08-04T12:56:56;99234.69;;;25.99;50.75
38275;BME280;24637;49.380;6.682;2022-08-04T12:59:22;99241.91;;;26.00;50.78
38275;BME280;24637;49.380;6.682;2022-08-04T13:01:48;99241.91;;;26.00;50.82
38275;BME280;24637;49.380;6.682;2022-08-04T13:04:25;99236.34;;;26.00;50.62
38275;BME280;24637;49.380;6.682;2022-08-04T13:07:04;99249.09;;;26.01;50.65
38275;BME280;24637;49.380;6.682;2022-08-04T13:09:32;99236.78;;;26.02;50.67
38275;BME280;24637;49.380;6.682;2022-08-04T13:12:03;99233.16;;;26.02;50.72
38275;BME280;24637;49.380;6.682;2022-08-04T13:14:34;99234.81;;;26.03;50.65
38275;BME280;24637;49.380;6.682;2022-08-04T13:17:01;99229.22;;;26.03;50.35
38275;BME280;24637;49.380;6.682;2022-08-04T13:19:28;99230.03;;;26.03;50.62
38275;BME280;24637;49.380;6.682;2022-08-04T13:21:55;99218.84;;;26.03;50.61
38275;BME280;24637;49.380;6.682;2022-08-04T13:24:22;99220.50;;;26.04;50.47
38275;BME280;24637;49.380;6.682;2022-08-04T13:29:16;99214.91;;;26.04;50.72
38275;BME280;24637;49.380;6.682;2022-08-04T13:31:43;99212.13;;;26.04;50.56
38275;BME280;24637;49.380;6.682;2022-08-04T13:34:10;99206.19;;;26.06;50.62
38275;BME280;24637;49.380;6.682;2022-08-04T13:36:36;99204.22;;;26.06;50.64
38275;BME280;24637;49.380;6.682;2022-08-04T13:39:12;99184.66;;;26.06;50.55
38275;BME280;24637;49.380;6.682;2022-08-04T13:41:41;99184.66;;;26.06;50.72
38275;BME280;24637;49.380;6.682;2022-08-04T13:44:08;99186.28;;;26.07;50.51
38275;BME280;24637;49.380;6.682;2022-08-04T13:46:43;99189.09;;;26.07;50.65
38275;BME280;24637;49.380;6.682;2022-08-04T13:49:14;99180.69;;;26.07;50.50
38275;BME280;24637;49.380;6.682;2022-08-04T13:51:40;99190.72;;;26.08;50.60
38275;BME280;24637;49.380;6.682;2022-08-04T13:54:06;99182.34;;;26.08;50.45
38275;BME280;24637;49.380;6.682;2022-08-04T13:56:38;99177.53;;;26.09;50.60
38275;BME280;24637;49.380;6.682;2022-08-04T13:59:09;99183.94;;;26.09;50.51
38275;BME280;24637;49.380;6.682;2022-08-04T14:01:37;99178.34;;;26.09;50.51
38275;BME280;24637;49.380;6.682;2022-08-04T14:04:17;99173.59;;;26.10;50.48
38275;BME280;24637;49.380;6.682;2022-08-04T14:07:02;99178.00;;;26.11;50.64
38275;BME280;24637;49.380;6.682;2022-08-04T14:09:31;99178.81;;;26.11;50.55
38275;BME280;24637;49.380;6.682;2022-08-04T14:12:21;99171.25;;;26.12;50.46
38275;BME280;24637;49.380;6.682;2022-08-04T14:14:50;99163.69;;;26.12;50.41
38275;BME280;24637;49.380;6.682;2022-08-04T14:17:17;99169.28;;;26.12;50.36
38275;BME280;24637;49.380;6.682;2022-08-04T14:19:59;99172.09;;;26.12;50.59
38275;BME280;24637;49.380;6.682;2022-08-04T14:25:12;99168.13;;;26.13;50.90
38275;BME280;24637;49.380;6.682;2022-08-04T14:27:52;99168.13;;;26.13;50.35
38275;BME280;24637;49.380;6.682;2022-08-04T14:30:33;99162.53;;;26.13;50.50
38275;BME280;24637;49.380;6.682;2022-08-04T14:33:05;99156.94;;;26.13;50.38
38275;BME280;24637;49.380;6.682;2022-08-04T14:35:32;99151.38;;;26.13;50.51
38275;BME280;24637;49.380;6.682;2022-08-04T14:38:02;99159.41;;;26.15;50.58
38275;BME280;24637;49.380;6.682;2022-08-04T14:40:30;99153.00;;;26.14;50.46
38275;BME280;24637;49.380;6.682;2022-08-04T14:42:56;99149.03;;;26.15;50.40
38275;BME280;24637;49.380;6.682;2022-08-04T14:45:51;99154.63;;;26.15;50.29
38275;BME280;24637;49.380;6.682;2022-08-04T14:48:27;99157.06;;;26.17;50.57
38275;BME280;24637;49.380;6.682;2022-08-04T14:50:53;99157.53;;;26.19;50.47
38275;BME280;24637;49.380;6.682;2022-08-04T14:53:23;99149.97;;;26.19;50.39
38275;BME280;24637;49.380;6.682;2022-08-04T14:55:59;99150.44;;;26.21;50.50
38275;BME280;24637;49.380;6.682;2022-08-04T15:00:54;99155.19;;;26.21;50.46
38275;BME280;24637;49.380;6.682;2022-08-04T15:03:21;99146.81;;;26.21;50.28
38275;BME280;24637;49.380;6.682;2022-08-04T15:05:47;99142.06;;;26.21;50.30
38275;BME280;24637;49.380;6.682;2022-08-04T15:08:13;99144.03;;;26.21;50.48
38275;BME280;24637;49.380;6.682;2022-08-04T15:10:40;99136.47;;;26.21;50.56
38275;BME280;24637;49.380;6.682;2022-08-04T15:13:06;99138.09;;;26.22;50.51
38275;BME280;24637;49.380;6.682;2022-08-04T15:15:32;99140.91;;;26.22;50.43
38275;BME280;24637;49.380;6.682;2022-08-04T15:17:58;99134.94;;;26.24;50.53
38275;BME280;24637;49.380;6.682;2022-08-04T15:20:23;99134.94;;;26.24;50.61
38275;BME280;24637;49.380;6.682;2022-08-04T15:22:49;99130.16;;;26.24;50.69
38275;BME280;24637;49.380;6.682;2022-08-04T15:25:15;99132.94;;;26.24;50.55
38275;BME280;24637;49.380;6.682;2022-08-04T15:27:41;99126.22;;;26.25;50.59
38275;BME280;24637;49.380;6.682;2022-08-04T15:30:10;99122.28;;;26.26;50.50
38275;BME280;24637;49.380;6.682;2022-08-04T15:32:47;99116.69;;;26.26;50.59
38275;BME280;24637;49.380;6.682;2022-08-04T15:35:19;99119.94;;;26.28;50.65
38275;BME280;24637;49.380;6.682;2022-08-04T15:38:01;99115.53;;;26.27;50.47
38275;BME280;24637;49.380;6.682;2022-08-04T15:46:04;99113.19;;;26.30;50.39
38275;BME280;24637;49.380;6.682;2022-08-04T15:48:33;99119.22;;;26.32;50.59
38275;BME280;24637;49.380;6.682;2022-08-04T15:51:06;99117.63;;;26.31;50.54
38275;BME280;24637;49.380;6.682;2022-08-04T15:56:42;99104.09;;;26.33;50.37
38275;BME280;24637;49.380;6.682;2022-08-04T15:59:07;99102.13;;;26.33;50.53
38275;BME280;24637;49.380;6.682;2022-08-04T16:01:33;99099.31;;;26.33;50.58
38275;BME280;24637;49.380;6.682;2022-08-04T16:03:58;99107.38;;;26.35;50.50
38275;BME280;24637;49.380;6.682;2022-08-04T16:06:39;99107.38;;;26.35;50.42
38275;BME280;24637;49.380;6.682;2022-08-04T16:09:05;99106.19;;;26.36;50.67
38275;BME280;24637;49.380;6.682;2022-08-04T16:22:04;99089.19;;;26.41;50.54
38275;BME280;24637;49.380;6.682;2022-08-04T16:24:36;99087.53;;;26.40;50.64
38275;BME280;24637;49.380;6.682;2022-08-04T16:27:03;99085.22;;;26.42;50.55
38275;BME280;24637;49.380;6.682;2022-08-04T16:29:31;99081.25;;;26.43;50.60
38275;BME280;24637;49.380;6.682;2022-08-04T16:37:22;99083.31;;;26.46;50.57
38275;BME280;24637;49.380;6.682;2022-08-04T16:39:48;99087.75;;;26.47;50.63
38275;BME280;24637;49.380;6.682;2022-08-04T16:45:12;99079.03;;;26.48;50.49
38275;BME280;24637;49.380;6.682;2022-08-04T16:50:20;99081.47;;;26.50;50.83
38275;BME280;24637;49.380;6.682;2022-08-04T16:52:54;99089.50;;;26.51;50.64
38275;BME280;24637;49.380;6.682;2022-08-04T16:55:22;99090.31;;;26.52;50.39
38275;BME280;24637;49.380;6.682;2022-08-04T16:57:50;99075.19;;;26.53;50.64
38275;BME280;24637;49.380;6.682;2022-08-04T17:00:16;99091.97;;;26.53;50.71
38275;BME280;24637;49.380;6.682;2022-08-04T17:02:42;99085.63;;;26.56;50.80
38275;BME280;24637;49.380;6.682;2022-08-04T17:05:23;99088.44;;;26.56;50.75
38275;BME280;24637;49.380;6.682;2022-08-04T17:07:55;99085.63;;;26.56;50.53
38275;BME280;24637;49.380;6.682;2022-08-04T17:10:41;99081.69;;;26.57;50.49
38275;BME280;24637;49.380;6.682;2022-08-04T17:13:32;99088.09;;;26.57;50.67
38275;BME280;24637;49.380;6.682;2022-08-04T17:16:02;99094.50;;;26.58;50.61
38275;BME280;24637;49.380;6.682;2022-08-04T17:18:30;99100.91;;;26.58;50.41
38275;BME280;24637;49.380;6.682;2022-08-04T17:21:10;99100.91;;;26.58;50.50
38275;BME280;24637;49.380;6.682;2022-08-04T17:23:39;99096.13;;;26.59;50.50
38275;BME280;24637;49.380;6.682;2022-08-04T17:26:17;99096.94;;;26.59;50.56
38275;BME280;24637;49.380;6.682;2022-08-04T17:28:46;99092.94;;;26.60;50.58
38275;BME280;24637;49.380;6.682;2022-08-04T17:31:12;99099.34;;;26.61;50.59
38275;BME280;24637;49.380;6.682;2022-08-04T17:33:43;99089.81;;;26.62;50.44
38275;BME280;24637;49.380;6.682;2022-08-04T17:36:09;99090.97;;;26.61;50.74